createdAt,value
2019-02-16T00:00:34.151Z,7.35
2019-02-16T00:03:05.123Z,6.90
2019-02-16T00:05:35.259Z,7.42
2019-02-16T00:08:04.571Z,6.90
2019-02-16T00:10:34.220Z,6.95
2019-02-16T00:13:06.691Z,7.30
2019-02-16T00:15:44.820Z,7.47
2019-02-16T00:18:14.130Z,7.10
2019-02-16T00:20:43.694Z,7.10
2019-02-16T00:23:13.317Z,6.92
2019-02-16T00:25:42.925Z,7.40
2019-02-16T00:28:12.228Z,7.72
2019-02-16T00:30:41.604Z,8.33
2019-02-16T00:33:10.921Z,8.30
2019-02-16T00:35:40.222Z,8.75
2019-02-16T00:38:09.581Z,7.67
2019-02-16T00:40:41.674Z,8.08
2019-02-16T00:43:10.986Z,8.53
2019-02-16T00:45:40.343Z,8.33
2019-02-16T00:48:09.647Z,8.35
2019-02-16T00:50:38.949Z,8.05
2019-02-16T00:53:08.608Z,8.03
2019-02-16T00:55:37.908Z,7.85
2019-02-16T00:58:07.511Z,7.97
2019-02-16T01:00:36.815Z,8.00
2019-02-16T01:03:06.124Z,7.60
2019-02-16T01:05:35.503Z,7.53
2019-02-16T01:08:05.135Z,8.23
2019-02-16T01:10:34.427Z,7.67
2019-02-16T01:13:03.798Z,7.97
2019-02-16T01:15:33.094Z,8.75
2019-02-16T01:18:02.735Z,8.30
2019-02-16T01:20:32.090Z,8.58
2019-02-16T01:23:01.392Z,8.85
2019-02-16T01:25:30.693Z,8.68
2019-02-16T01:28:00.051Z,8.40
2019-02-16T01:30:29.629Z,7.87
2019-02-16T01:32:58.947Z,8.18
2019-02-16T01:35:28.299Z,8.88
2019-02-16T01:37:57.955Z,8.30
2019-02-16T01:40:27.560Z,8.50
2019-02-16T01:42:57.197Z,9.03
2019-02-16T01:45:26.772Z,8.18
2019-02-16T01:47:56.079Z,8.25
2019-02-16T01:50:25.419Z,8.00
2019-02-16T01:52:54.782Z,8.35
2019-02-16T01:55:24.373Z,8.18
2019-02-16T01:57:53.674Z,7.78
2019-02-16T02:00:23.013Z,8.30
2019-02-16T02:02:52.421Z,8.43
2019-02-16T02:05:22.150Z,8.35
2019-02-16T02:07:51.396Z,8.18
2019-02-16T02:10:20.797Z,8.80
2019-02-16T02:12:50.111Z,8.18
2019-02-16T02:15:19.453Z,8.53
2019-02-16T02:17:48.774Z,8.25
2019-02-16T02:20:18.211Z,8.25
2019-02-16T02:22:47.549Z,8.80
2019-02-16T02:25:16.930Z,8.65
2019-02-16T02:27:46.248Z,8.13
2019-02-16T02:30:15.556Z,8.55
2019-02-16T02:32:44.898Z,8.40
2019-02-16T02:35:14.244Z,8.20
2019-02-16T02:37:43.803Z,8.05
2019-02-16T02:40:13.428Z,7.80
2019-02-16T02:42:42.778Z,8.43
2019-02-16T02:45:12.152Z,8.40
2019-02-16T02:47:41.454Z,8.30
2019-02-16T02:50:11.129Z,7.95
2019-02-16T02:52:40.723Z,8.28
2019-02-16T02:55:10.097Z,8.63
2019-02-16T02:57:39.466Z,8.45
2019-02-16T03:00:10.711Z,8.70
2019-02-16T03:02:40.005Z,8.90
2019-02-16T03:05:11.083Z,9.08
2019-02-16T03:07:40.380Z,8.58
2019-02-16T03:10:09.981Z,9.00
2019-02-16T03:12:39.546Z,8.23
2019-02-16T03:15:08.996Z,9.00
2019-02-16T03:17:38.641Z,8.65
2019-02-16T03:20:08.090Z,8.30
2019-02-16T03:23:18.440Z,8.98
2019-02-16T03:26:01.294Z,8.28
2019-02-16T03:28:58.503Z,9.00
2019-02-16T03:31:47.772Z,8.95
2019-02-16T03:34:41.371Z,9.30
2019-02-16T03:37:36.089Z,9.25
2019-02-16T03:40:08.995Z,8.68
2019-02-16T03:42:38.348Z,9.58
2019-02-16T03:45:08.211Z,9.48
2019-02-16T03:47:37.821Z,9.08
2019-02-16T03:50:09.329Z,8.78
2019-02-16T03:52:38.639Z,9.05
2019-02-16T03:55:08.176Z,8.65
2019-02-16T03:57:37.585Z,8.98
2019-02-16T04:00:10.369Z,8.90
2019-02-16T04:02:39.976Z,8.78
2019-02-16T04:05:09.272Z,8.63
2019-02-16T04:07:38.583Z,9.75
2019-02-16T04:10:08.511Z,9.35
2019-02-16T04:12:37.818Z,9.90
2019-02-16T04:15:07.912Z,9.13
2019-02-16T04:17:37.262Z,9.48
2019-02-16T04:20:07.987Z,9.55
2019-02-16T04:22:37.288Z,9.38
2019-02-16T04:25:06.706Z,8.68
2019-02-16T04:27:36.011Z,8.58
2019-02-16T04:30:07.216Z,8.65
2019-02-16T04:32:36.821Z,9.35
2019-02-16T04:35:07.531Z,9.05
2019-02-16T04:37:36.864Z,9.00
2019-02-16T04:40:06.255Z,9.68
2019-02-16T04:42:35.576Z,9.20
2019-02-16T04:45:11.710Z,9.43
2019-02-16T04:47:41.318Z,9.40
2019-02-16T04:50:10.742Z,9.08
2019-02-16T04:52:40.107Z,10.08
2019-02-16T04:55:09.813Z,9.28
2019-02-16T04:57:39.253Z,9.23
2019-02-16T05:00:10.164Z,9.58
2019-02-16T05:02:39.479Z,10.05
2019-02-16T05:05:09.168Z,9.75
2019-02-16T05:07:38.549Z,10.58
2019-02-16T05:10:08.793Z,10.25
2019-02-16T05:12:38.512Z,10.80
2019-02-16T05:15:10.141Z,11.93
2019-02-16T05:17:39.487Z,11.28
2019-02-16T05:20:08.824Z,12.13
2019-02-16T05:22:44.701Z,11.38
2019-02-16T05:25:09.179Z,11.15
2019-02-16T05:27:38.484Z,11.70
2019-02-16T05:30:09.538Z,12.75
2019-02-16T05:32:38.912Z,11.48
2019-02-16T05:35:08.202Z,11.48
2019-02-16T05:37:37.864Z,11.38
2019-02-16T05:40:09.262Z,11.65
2019-02-16T05:42:38.558Z,11.55
2019-02-16T05:45:09.071Z,10.35
2019-02-16T05:47:38.422Z,11.50
2019-02-16T05:50:08.140Z,11.78
2019-02-16T05:52:37.447Z,11.65
2019-02-16T05:55:07.832Z,11.85
2019-02-16T05:57:37.473Z,11.20
2019-02-16T06:00:11.408Z,10.58
2019-02-16T06:02:40.753Z,11.18
2019-02-16T06:05:10.408Z,11.83
2019-02-16T06:07:39.707Z,12.53
2019-02-16T06:10:09.617Z,11.63
2019-02-16T06:12:38.967Z,11.97
2019-02-16T06:15:09.718Z,11.80
2019-02-16T06:17:39.358Z,11.50
2019-02-16T06:20:10.185Z,11.15
2019-02-16T06:22:39.500Z,10.63
2019-02-16T06:25:08.958Z,10.93
2019-02-16T06:27:38.505Z,10.58
2019-02-16T06:30:09.648Z,11.00
2019-02-16T06:32:39.011Z,10.18
2019-02-16T06:35:25.247Z,10.18
2019-02-16T06:37:55.263Z,10.08
2019-02-16T06:40:24.569Z,10.80
2019-02-16T06:42:54.013Z,11.63
2019-02-16T06:45:23.362Z,11.90
2019-02-16T06:47:52.669Z,11.90
2019-02-16T06:50:21.978Z,11.35
2019-02-16T06:52:51.341Z,11.95
2019-02-16T06:55:21.037Z,12.35
2019-02-16T06:57:51.268Z,11.80
2019-02-16T07:00:22.340Z,11.48
2019-02-16T07:02:51.789Z,11.12
2019-02-16T07:05:21.100Z,11.10
2019-02-16T07:07:50.474Z,11.68
2019-02-16T07:10:20.092Z,11.38
2019-02-16T07:12:49.354Z,10.98
2019-02-16T07:15:18.719Z,11.18
2019-02-16T07:17:52.147Z,11.50
2019-02-16T07:20:22.319Z,12.58
2019-02-16T07:22:51.929Z,12.10
2019-02-16T07:25:21.305Z,12.07
2019-02-16T07:27:50.674Z,12.40
2019-02-16T07:30:20.033Z,13.35
2019-02-16T07:32:49.704Z,14.38
2019-02-16T07:35:19.022Z,14.83
2019-02-16T07:37:48.375Z,14.10
2019-02-16T07:40:17.695Z,14.80
2019-02-16T07:42:54.889Z,15.65
2019-02-16T07:45:29.596Z,14.78
2019-02-16T07:48:00.550Z,16.17
2019-02-16T07:50:31.547Z,16.62
2019-02-16T07:53:08.395Z,15.65
2019-02-16T07:55:42.256Z,15.55
2019-02-16T07:58:22.431Z,15.90
2019-02-16T08:00:56.849Z,15.23
2019-02-16T08:03:30.902Z,14.93
2019-02-16T08:06:04.600Z,15.20
2019-02-16T08:08:35.558Z,14.03
2019-02-16T08:11:06.514Z,13.98
2019-02-16T08:13:40.659Z,13.45
2019-02-16T08:16:14.318Z,12.90
2019-02-16T08:18:45.258Z,12.98
2019-02-16T08:21:19.503Z,12.88
2019-02-16T08:24:02.247Z,12.55
2019-02-16T08:26:33.565Z,13.03
2019-02-16T08:29:23.037Z,12.07
2019-02-16T08:31:54.276Z,12.13
2019-02-16T08:34:25.243Z,12.78
2019-02-16T08:36:56.171Z,12.00
2019-02-16T08:39:45.433Z,12.73
2019-02-16T08:42:28.274Z,11.97
2019-02-16T08:44:59.275Z,13.38
2019-02-16T08:47:32.998Z,13.78
2019-02-16T08:50:15.913Z,13.00
2019-02-16T08:52:58.810Z,12.53
2019-02-16T08:55:30.088Z,12.13
2019-02-16T08:58:12.904Z,11.63
2019-02-16T09:00:49.752Z,11.20
2019-02-16T09:03:32.693Z,11.53
2019-02-16T09:06:09.432Z,10.65
2019-02-16T09:08:43.058Z,10.60
2019-02-16T09:11:19.641Z,11.18
2019-02-16T09:13:52.444Z,10.85
2019-02-16T09:16:38.559Z,11.03
2019-02-16T09:19:12.935Z,11.63
2019-02-16T09:21:44.227Z,11.10
2019-02-16T09:24:17.931Z,11.35
2019-02-16T09:27:01.129Z,11.88
2019-02-16T09:29:32.127Z,11.18
2019-02-16T09:32:08.919Z,11.28
2019-02-16T09:34:55.297Z,11.45
2019-02-16T09:37:26.298Z,11.80
2019-02-16T09:39:57.622Z,11.40
2019-02-16T09:42:31.782Z,11.90
2019-02-16T09:45:03.070Z,11.28
2019-02-16T09:47:42.941Z,11.18
2019-02-16T09:50:16.552Z,11.18
2019-02-16T09:52:53.611Z,11.68
2019-02-16T09:55:27.622Z,11.28
2019-02-16T09:57:58.567Z,11.03
2019-02-16T10:00:29.815Z,11.90
2019-02-16T10:03:01.136Z,12.10
2019-02-16T10:05:44.023Z,11.78
2019-02-16T10:08:17.698Z,11.68
2019-02-16T10:11:04.994Z,11.40
2019-02-16T10:13:41.409Z,12.68
2019-02-16T10:16:12.390Z,11.18
2019-02-16T10:18:43.346Z,11.55
2019-02-16T10:21:14.967Z,10.80
2019-02-16T10:23:45.990Z,10.85
2019-02-16T10:26:32.831Z,12.28
2019-02-16T10:29:09.850Z,11.45
2019-02-16T10:31:57.285Z,11.48
2019-02-16T10:34:31.263Z,10.95
2019-02-16T10:37:05.167Z,11.18
2019-02-16T10:39:48.320Z,10.10
2019-02-16T10:42:25.297Z,10.65
2019-02-16T10:45:04.867Z,10.08
2019-02-16T10:47:41.572Z,10.70
2019-02-16T10:50:15.240Z,10.10
2019-02-16T10:52:48.705Z,10.95
2019-02-16T10:55:22.492Z,10.38
2019-02-16T10:57:53.738Z,10.13
2019-02-16T11:00:36.756Z,11.35
2019-02-16T11:03:07.763Z,9.60
2019-02-16T11:05:44.813Z,10.35
2019-02-16T11:08:18.674Z,10.65
2019-02-16T11:10:55.369Z,11.48
2019-02-16T11:13:44.323Z,11.33
2019-02-16T11:16:23.136Z,10.58
2019-02-16T11:18:59.815Z,12.00
2019-02-16T11:21:39.758Z,11.08
2019-02-16T11:24:11.498Z,11.40
2019-02-16T11:26:44.856Z,11.48
2019-02-16T11:29:33.540Z,12.35
2019-02-16T11:32:07.270Z,11.38
2019-02-16T11:34:38.274Z,11.50
2019-02-16T11:37:27.230Z,11.35
2019-02-16T11:40:10.282Z,10.65
2019-02-16T11:42:44.201Z,11.85
2019-02-16T11:45:15.460Z,11.75
2019-02-16T11:47:55.507Z,12.40
2019-02-16T11:50:38.939Z,11.75
2019-02-16T11:53:09.952Z,11.25
2019-02-16T11:55:43.578Z,12.73
2019-02-16T11:58:30.676Z,11.93
2019-02-16T12:01:01.749Z,12.70
2019-02-16T12:03:35.490Z,11.73
2019-02-16T12:06:06.462Z,12.55
2019-02-16T12:08:37.724Z,11.75
2019-02-16T12:11:24.596Z,12.58
2019-02-16T12:13:58.054Z,12.47
2019-02-16T12:16:29.079Z,11.55
2019-02-16T12:19:00.055Z,12.50
2019-02-16T12:21:46.291Z,12.55
2019-02-16T12:24:17.258Z,12.63
2019-02-16T12:26:57.339Z,12.47
2019-02-16T12:29:28.546Z,13.32
2019-02-16T12:31:59.800Z,12.07
2019-02-16T12:34:31.144Z,13.13
2019-02-16T12:37:18.378Z,12.00
2019-02-16T12:39:49.398Z,13.20
2019-02-16T12:42:35.562Z,12.40
2019-02-16T12:45:09.463Z,12.82
2019-02-16T12:47:40.758Z,13.18
2019-02-16T12:50:29.634Z,12.58
2019-02-16T12:53:12.322Z,12.70
2019-02-16T12:55:43.576Z,12.43
2019-02-16T12:58:26.829Z,12.88
2019-02-16T13:00:57.865Z,13.05
2019-02-16T13:03:45.392Z,12.13
2019-02-16T13:06:19.050Z,13.08
2019-02-16T13:08:50.333Z,13.18
2019-02-16T13:11:37.433Z,10.90
2019-02-16T13:14:08.389Z,11.35
2019-02-16T13:16:45.067Z,11.97
2019-02-16T13:19:18.978Z,11.78
2019-02-16T13:21:52.917Z,12.35
2019-02-16T13:24:26.547Z,11.68
2019-02-16T13:27:13.934Z,12.18
2019-02-16T13:29:57.428Z,12.05
2019-02-16T13:32:31.116Z,13.35
2019-02-16T13:35:08.117Z,12.40
2019-02-16T13:37:45.303Z,12.43
2019-02-16T13:40:32.710Z,12.25
2019-02-16T13:43:03.714Z,12.20
2019-02-16T13:45:37.586Z,12.40
2019-02-16T13:51:02.633Z,12.98
2019-02-16T13:53:33.586Z,12.75
2019-02-16T13:56:10.873Z,13.13
2019-02-16T13:58:57.101Z,13.43
2019-02-16T14:01:37.002Z,12.98
2019-02-16T14:04:20.153Z,14.70
2019-02-16T14:07:03.046Z,12.70
2019-02-16T14:09:42.744Z,13.15
2019-02-16T14:12:16.319Z,13.38
2019-02-16T14:14:47.601Z,13.50
2019-02-16T14:17:18.939Z,13.38
2019-02-16T14:19:48.264Z,12.45
2019-02-16T14:22:20.162Z,12.65
2019-02-16T14:24:51.120Z,13.15
2019-02-16T14:27:20.747Z,14.47
2019-02-16T14:29:50.847Z,13.20
2019-02-16T14:32:20.212Z,13.88
2019-02-16T14:34:49.542Z,14.00
2019-02-16T14:37:23.436Z,12.10
2019-02-16T14:39:53.089Z,12.43
2019-02-16T14:42:22.418Z,13.72
2019-02-16T14:44:51.983Z,13.62
2019-02-16T14:47:21.361Z,14.38
2019-02-16T14:49:50.878Z,14.23
2019-02-16T14:52:20.201Z,13.95
2019-02-16T14:54:49.577Z,13.25
2019-02-16T14:57:18.893Z,13.28
2019-02-16T14:59:48.510Z,14.63
2019-02-16T15:02:17.876Z,14.68
2019-02-16T15:04:47.198Z,13.72
2019-02-16T15:07:16.503Z,14.65
2019-02-16T15:09:46.116Z,13.58
2019-02-16T15:12:15.494Z,12.55
2019-02-16T15:14:45.117Z,14.15
2019-02-16T15:17:14.483Z,14.33
2019-02-16T15:19:43.803Z,14.50
2019-02-16T15:22:13.186Z,13.95
2019-02-16T15:24:42.548Z,13.58
2019-02-16T15:27:11.861Z,13.78
2019-02-16T15:29:41.210Z,13.88
2019-02-16T15:32:10.561Z,14.05
2019-02-16T15:34:39.930Z,13.65
2019-02-16T15:37:09.241Z,13.68
2019-02-16T15:39:38.836Z,14.35
2019-02-16T15:42:08.151Z,15.70
2019-02-16T15:44:37.852Z,14.80
2019-02-16T15:47:07.461Z,13.88
2019-02-16T15:49:36.782Z,12.65
2019-02-16T15:52:06.149Z,13.32
2019-02-16T15:54:35.769Z,13.40
2019-02-16T15:57:05.085Z,12.55
2019-02-16T15:59:35.419Z,14.03
2019-02-16T16:02:05.216Z,13.48
2019-02-16T16:04:34.479Z,13.15
2019-02-16T16:07:05.475Z,13.53
2019-02-16T16:09:36.504Z,13.83
2019-02-16T16:12:12.952Z,13.00
2019-02-16T16:14:46.613Z,13.72
2019-02-16T16:17:20.865Z,14.33
2019-02-16T16:19:57.843Z,14.90
2019-02-16T16:22:43.844Z,14.00
2019-02-16T16:25:15.193Z,14.43
2019-02-16T16:27:49.137Z,14.80
2019-02-16T16:30:25.884Z,14.40
2019-02-16T16:33:05.830Z,14.30
2019-02-16T16:35:48.907Z,14.53
2019-02-16T16:38:36.042Z,15.25
2019-02-16T16:41:16.318Z,16.05
2019-02-16T16:43:50.330Z,14.68
2019-02-16T16:46:27.066Z,15.55
2019-02-16T16:49:03.911Z,15.85
2019-02-16T16:51:51.180Z,16.17
2019-02-16T16:54:31.030Z,16.45
2019-02-16T16:57:02.093Z,16.32
2019-02-16T16:59:42.131Z,16.02
2019-02-16T17:02:29.435Z,16.48
2019-02-16T17:05:00.388Z,15.50
2019-02-16T17:07:34.274Z,16.12
2019-02-16T17:10:22.071Z,14.75
2019-02-16T17:12:59.005Z,14.93
2019-02-16T17:15:38.909Z,15.50
2019-02-16T17:18:26.014Z,16.00
2019-02-16T17:20:59.792Z,15.10
2019-02-16T17:23:34.004Z,14.73
2019-02-16T17:26:21.131Z,15.75
2019-02-16T17:29:06.998Z,15.23
2019-02-16T17:31:44.088Z,14.45
2019-02-16T17:34:15.034Z,13.50
2019-02-16T17:36:46.038Z,14.58
2019-02-16T17:39:20.046Z,13.58
2019-02-16T17:42:00.087Z,13.78
2019-02-16T17:44:31.385Z,14.23
2019-02-16T17:47:17.904Z,13.68
2019-02-16T17:49:49.159Z,14.45
2019-02-16T17:52:29.211Z,14.63
2019-02-16T17:55:00.341Z,13.48
2019-02-16T17:57:40.075Z,14.15
2019-02-16T18:00:30.789Z,14.05
2019-02-16T18:03:18.210Z,13.70
2019-02-16T18:05:58.357Z,13.85
2019-02-16T18:08:35.041Z,13.32
2019-02-16T18:11:06.375Z,14.90
2019-02-16T18:13:53.863Z,14.47
2019-02-16T18:16:32.307Z,14.45
2019-02-16T18:19:08.970Z,15.15
2019-02-16T18:21:39.974Z,13.98
2019-02-16T18:24:10.967Z,13.75
2019-02-16T18:26:44.881Z,14.23
2019-02-16T18:29:15.824Z,14.13
2019-02-16T18:31:47.081Z,15.90
2019-02-16T18:34:20.810Z,16.97
2019-02-16T18:36:54.533Z,15.58
2019-02-16T18:39:41.599Z,15.00
2019-02-16T18:42:15.268Z,15.70
2019-02-16T18:45:02.368Z,16.40
2019-02-16T18:47:49.381Z,17.00
2019-02-16T18:50:26.107Z,14.75
2019-02-16T18:53:09.461Z,15.68
2019-02-16T18:55:43.141Z,15.03
2019-02-16T18:58:14.102Z,15.18
2019-02-16T19:00:48.425Z,15.93
2019-02-16T19:03:19.627Z,16.07
2019-02-16T19:05:53.564Z,15.98
2019-02-16T19:08:30.153Z,15.30
2019-02-16T19:11:16.290Z,15.70
2019-02-16T19:13:47.563Z,15.63
2019-02-16T19:16:36.786Z,16.02
2019-02-16T19:19:13.806Z,15.60
2019-02-16T19:21:53.671Z,15.70
2019-02-16T19:24:27.213Z,17.48
2019-02-16T19:26:58.498Z,18.98
2019-02-16T19:29:32.702Z,20.97
2019-02-16T19:32:03.712Z,24.47
2019-02-16T19:34:43.356Z,26.80
2019-02-16T19:37:14.350Z,27.50
2019-02-16T19:39:54.160Z,27.05
2019-02-16T19:42:31.189Z,28.02
2019-02-16T19:45:02.151Z,27.00
2019-02-16T19:47:41.976Z,27.62
2019-02-16T19:50:29.373Z,27.10
2019-02-16T19:53:03.055Z,27.50
2019-02-16T19:55:39.699Z,28.87
2019-02-16T19:58:10.727Z,28.25
2019-02-16T20:00:59.939Z,29.10
2019-02-16T20:03:31.196Z,29.57
2019-02-16T20:06:07.791Z,30.17
2019-02-16T20:08:41.457Z,30.57
2019-02-16T20:11:15.391Z,30.80
2019-02-16T20:13:46.621Z,29.50
2019-02-16T20:16:32.593Z,27.85
2019-02-16T20:19:19.821Z,27.22
2019-02-16T20:22:07.151Z,24.82
2019-02-16T20:24:38.101Z,24.80
2019-02-16T20:27:23.792Z,24.32
2019-02-16T20:29:57.182Z,26.33
2019-02-16T20:32:30.968Z,23.57
2019-02-16T20:35:07.879Z,23.22
2019-02-16T20:37:44.621Z,24.07
2019-02-16T20:40:21.347Z,23.12
2019-02-16T20:43:00.935Z,23.83
2019-02-16T20:45:47.166Z,24.50
2019-02-16T20:48:23.765Z,23.22
2019-02-16T20:51:04.084Z,22.93
2019-02-16T20:53:35.086Z,23.07
2019-02-16T20:56:08.916Z,22.25
2019-02-16T20:58:55.239Z,23.60
2019-02-16T21:01:26.181Z,22.60
2019-02-16T21:04:00.064Z,24.10
2019-02-16T21:06:37.269Z,26.52
2019-02-16T21:09:09.485Z,22.77
2019-02-16T21:11:43.437Z,22.85
2019-02-16T21:14:32.363Z,23.92
2019-02-16T21:17:06.209Z,23.65
2019-02-16T21:19:53.264Z,24.77
2019-02-16T21:22:40.683Z,24.95
2019-02-16T21:25:23.280Z,24.63
2019-02-16T21:27:59.971Z,22.67
2019-02-16T21:30:30.963Z,22.17
2019-02-16T21:33:01.931Z,21.27
2019-02-16T21:35:32.875Z,21.35
2019-02-16T21:38:03.869Z,20.60
2019-02-16T21:40:37.478Z,21.73
2019-02-16T21:43:24.811Z,21.17
2019-02-16T21:46:12.132Z,23.05
2019-02-16T21:48:43.110Z,23.00
2019-02-16T21:51:14.317Z,23.65
2019-02-16T21:53:48.225Z,24.87
2019-02-16T21:56:31.220Z,24.82
2019-02-16T21:59:19.107Z,23.57
2019-02-16T22:01:50.002Z,24.65
2019-02-16T22:04:26.984Z,24.87
2019-02-16T22:06:57.934Z,25.75
2019-02-16T22:09:46.672Z,26.70
2019-02-16T22:12:32.736Z,29.65
2019-02-16T22:15:02.764Z,33.18
2019-02-16T22:17:32.285Z,36.58
2019-02-16T22:20:04.255Z,38.13
2019-02-16T22:22:33.872Z,38.63
2019-02-16T22:25:03.432Z,39.15
2019-02-16T22:27:32.993Z,39.27
2019-02-16T22:30:02.345Z,36.98
2019-02-16T22:32:31.708Z,36.95
2019-02-16T22:35:01.011Z,37.95
2019-02-16T22:37:30.371Z,37.80
2019-02-16T22:39:59.999Z,36.30
2019-02-16T22:42:29.306Z,35.73
2019-02-16T22:44:59.071Z,37.67
2019-02-16T22:47:28.333Z,38.23
2019-02-16T22:49:57.927Z,36.58
2019-02-16T22:52:27.299Z,38.38
2019-02-16T22:54:56.931Z,37.55
2019-02-16T22:57:26.526Z,37.55
2019-02-16T22:59:55.892Z,37.17
2019-02-16T23:02:25.194Z,36.38
2019-02-16T23:04:54.626Z,36.23
2019-02-16T23:07:25.180Z,33.00
2019-02-16T23:09:54.985Z,29.37
2019-02-16T23:12:24.300Z,28.12
2019-02-16T23:14:53.664Z,28.60
2019-02-16T23:17:23.293Z,31.65
2019-02-16T23:19:52.597Z,32.08
2019-02-16T23:22:21.957Z,35.00
2019-02-16T23:24:51.523Z,35.43
2019-02-16T23:27:20.860Z,36.93
2019-02-16T23:29:50.263Z,35.03
2019-02-16T23:32:19.934Z,36.53
2019-02-16T23:34:49.309Z,35.10
2019-02-16T23:37:18.538Z,35.10
2019-02-16T23:39:48.256Z,34.33
2019-02-16T23:42:17.816Z,33.83
2019-02-16T23:44:47.121Z,34.10
2019-02-16T23:47:16.727Z,34.67
2019-02-16T23:49:46.361Z,34.18
2019-02-16T23:52:15.670Z,33.38
2019-02-16T23:54:45.021Z,35.13
2019-02-16T23:57:14.340Z,36.53
2019-02-16T23:59:43.647Z,34.78
